Indaial, Brazil
Current Conditions -  °F | °C
As of 6:00 AM on Monday 20 Oct 2014 (Local Time) from SBNF Reporting Station
Broken Clouds Broken Clouds  
Wind Chill: 66°   Ceiling: 2000
Heat Index: 66°   Visibility: 6mi
Dew Point: 64°   Wind: 5mph
Humidity: 94%   Direction: 270°W
Pressure: 29.97"   Gusts: NA
Location:  26.91°S, 49.26°W
Report Text: SBNF 200900Z 27004KT 9999 SCT009 BKN020 19/18 Q1015
Loading
Personal Weather Stations






























Interactive Weather Map
Tropical Storm Tracking
New forecast layout! Learn more

10-Day Weather Forecast

Advertisements
Track Severe Weather on mobile